createdAt,value
2023-02-12T00:02:42.987Z,40.00
2023-02-12T00:06:15.747Z,50.30
2023-02-12T00:09:43.533Z,51.70
2023-02-12T00:13:11.037Z,45.00
2023-02-12T00:16:38.603Z,38.70
2023-02-12T00:20:07.426Z,40.20
2023-02-12T00:23:35.168Z,42.50
2023-02-12T00:27:02.412Z,44.70
2023-02-12T00:30:30.287Z,55.30
2023-02-12T00:33:58.222Z,48.90
2023-02-12T00:37:27.825Z,48.40
2023-02-12T00:40:55.441Z,45.70
2023-02-12T00:44:25.795Z,48.60
2023-02-12T00:47:53.117Z,37.60
2023-02-12T00:51:20.386Z,45.10
2023-02-12T00:54:47.828Z,41.30
2023-02-12T00:58:18.875Z,35.50
2023-02-12T01:01:46.300Z,50.60
2023-02-12T01:05:13.805Z,52.70
2023-02-12T01:08:44.710Z,39.50
2023-02-12T01:12:12.448Z,44.90
2023-02-12T01:15:39.712Z,44.40
2023-02-12T01:19:07.198Z,47.00
2023-02-12T01:22:34.964Z,36.00
2023-02-12T01:26:05.128Z,42.70
2023-02-12T01:29:32.235Z,39.40
2023-02-12T01:33:01.470Z,44.70
2023-02-12T01:36:29.877Z,50.20
2023-02-12T01:39:57.256Z,44.90
2023-02-12T01:43:24.417Z,44.30
2023-02-12T01:46:58.003Z,52.10
2023-02-12T01:50:25.440Z,52.30
2023-02-12T01:53:57.949Z,49.40
2023-02-12T01:57:26.046Z,45.60
2023-02-12T02:00:53.653Z,46.20
2023-02-12T02:04:24.879Z,41.20
2023-02-12T02:07:52.119Z,46.10
2023-02-12T02:11:37.135Z,46.10
2023-02-12T02:15:09.066Z,48.00
2023-02-12T02:18:42.440Z,37.50
2023-02-12T02:22:25.679Z,40.80
2023-02-12T02:26:12.142Z,34.20
2023-02-12T02:30:02.040Z,41.60
2023-02-12T02:33:41.480Z,44.30
2023-02-12T02:37:19.645Z,42.60
2023-02-12T02:40:54.615Z,43.40
2023-02-12T02:44:50.196Z,41.20
2023-02-12T02:48:24.482Z,38.90
2023-02-12T02:52:05.019Z,38.10
2023-02-12T02:55:39.038Z,39.10
2023-02-12T02:59:11.142Z,41.70
2023-02-12T03:02:42.804Z,41.00
2023-02-12T03:06:17.153Z,40.90
2023-02-12T03:09:48.299Z,29.60
2023-02-12T03:13:19.721Z,43.50
2023-02-12T03:16:55.517Z,51.30
2023-02-12T03:20:25.996Z,36.30
2023-02-12T03:23:59.366Z,40.90
2023-02-12T03:27:32.828Z,43.20
2023-02-12T03:31:12.133Z,37.70
2023-02-12T03:34:56.282Z,46.80
2023-02-12T03:38:32.170Z,41.70
2023-02-12T03:42:07.011Z,33.00
2023-02-12T03:45:43.920Z,32.30
2023-02-12T03:49:28.158Z,33.30
2023-02-12T03:52:55.611Z,24.40
2023-02-12T03:56:27.009Z,24.40
2023-02-12T03:59:54.634Z,24.70
2023-02-12T04:03:22.503Z,25.80
2023-02-12T04:06:51.665Z,36.30
2023-02-12T04:10:20.868Z,27.10
2023-02-12T04:14:00.890Z,27.70
2023-02-12T04:17:38.491Z,19.80
2023-02-12T04:21:13.791Z,33.20
2023-02-12T04:24:51.473Z,30.40
2023-02-12T04:28:29.616Z,29.80
2023-02-12T04:32:01.780Z,27.70
2023-02-12T04:35:33.895Z,27.00
2023-02-12T04:39:04.527Z,31.60
2023-02-12T04:42:42.043Z,33.10
2023-02-12T04:46:10.678Z,24.90
2023-02-12T04:49:40.252Z,28.60
2023-02-12T04:53:27.815Z,28.50
2023-02-12T04:56:55.176Z,32.80
2023-02-12T05:00:23.446Z,24.70
2023-02-12T05:03:54.404Z,26.40
2023-02-12T05:07:21.858Z,33.70
2023-02-12T05:10:49.112Z,28.90
2023-02-12T05:14:16.872Z,31.20
2023-02-12T05:17:45.870Z,34.40
2023-02-12T05:21:13.658Z,29.60
2023-02-12T05:24:41.428Z,38.80
2023-02-12T05:28:08.971Z,29.00
2023-02-12T05:31:37.200Z,37.00
2023-02-12T05:35:04.610Z,30.30
2023-02-12T05:38:31.822Z,28.20
2023-02-12T05:41:59.346Z,31.40
2023-02-12T05:45:28.157Z,30.10
2023-02-12T05:48:56.034Z,25.90
2023-02-12T05:52:26.309Z,28.70
2023-02-12T05:55:53.847Z,30.30
2023-02-12T05:59:24.041Z,31.30
2023-02-12T06:03:11.613Z,35.70
2023-02-12T06:06:42.285Z,34.30
2023-02-12T06:10:12.109Z,30.70
2023-02-12T06:13:39.511Z,29.60
2023-02-12T06:17:06.718Z,37.80
2023-02-12T06:20:34.184Z,41.60
2023-02-12T06:24:01.376Z,54.50
2023-02-12T06:27:28.822Z,39.60
2023-02-12T06:30:56.052Z,38.40
2023-02-12T06:37:51.319Z,26.10
2023-02-12T06:41:21.360Z,29.20
2023-02-12T06:44:51.306Z,29.60
2023-02-12T06:48:19.921Z,34.20
2023-02-12T06:51:47.119Z,34.30
2023-02-12T06:55:14.391Z,38.40
2023-02-12T06:58:43.373Z,42.10
2023-02-12T07:02:12.527Z,37.10
2023-02-12T07:05:42.043Z,32.60
2023-02-12T07:09:16.922Z,77.70
2023-02-12T07:12:44.348Z,66.00
2023-02-12T07:16:14.010Z,53.80
2023-02-12T07:19:41.276Z,42.80
2023-02-12T07:23:29.380Z,35.20
2023-02-12T07:26:56.682Z,42.00
2023-02-12T07:30:27.169Z,49.60
2023-02-12T07:33:57.072Z,59.90
2023-02-12T07:37:24.387Z,61.30
2023-02-12T07:40:51.848Z,70.20
2023-02-12T07:44:19.440Z,62.00
2023-02-12T07:47:46.883Z,75.70
2023-02-12T07:51:16.109Z,59.00
2023-02-12T07:54:43.387Z,56.10
2023-02-12T07:58:21.787Z,57.10
2023-02-12T08:01:51.394Z,47.60
2023-02-12T08:05:18.616Z,44.80
2023-02-12T08:08:46.112Z,70.10
2023-02-12T08:12:13.411Z,44.60
2023-02-12T08:15:40.685Z,62.40
2023-02-12T08:19:17.900Z,61.90
2023-02-12T08:22:46.287Z,107.80
2023-02-12T08:26:16.209Z,193.00
2023-02-12T08:29:43.499Z,184.60
2023-02-12T08:33:10.867Z,159.50
2023-02-12T08:36:41.375Z,171.00
2023-02-12T08:40:10.776Z,99.80
2023-02-12T08:43:38.675Z,70.80
2023-02-12T08:47:16.053Z,71.10
2023-02-12T08:50:43.210Z,144.30
2023-02-12T08:54:14.384Z,58.80
2023-02-12T08:57:43.275Z,43.30
2023-02-12T09:01:16.227Z,52.10
2023-02-12T09:04:46.256Z,65.30
2023-02-12T09:08:16.705Z,52.70
2023-02-12T09:11:45.164Z,61.10
2023-02-12T09:15:13.117Z,60.00
2023-02-12T09:18:41.317Z,62.90
2023-02-12T09:22:08.595Z,56.20
2023-02-12T09:25:36.838Z,111.10
2023-02-12T09:29:05.139Z,68.40
2023-02-12T09:32:32.513Z,63.30
2023-02-12T09:36:04.552Z,57.50
2023-02-12T09:39:32.453Z,53.30
2023-02-12T09:43:13.408Z,56.30
2023-02-12T09:46:48.958Z,57.80
2023-02-12T09:50:34.772Z,77.70
2023-02-12T09:54:07.473Z,57.80
2023-02-12T09:57:37.347Z,63.20
2023-02-12T10:01:12.156Z,70.60
2023-02-12T10:04:58.711Z,73.30
2023-02-12T10:08:41.175Z,75.70
2023-02-12T10:12:20.180Z,85.70
2023-02-12T10:15:55.685Z,70.50
2023-02-12T10:19:36.964Z,71.70
2023-02-12T10:23:17.676Z,69.40
2023-02-12T10:26:49.181Z,55.60
2023-02-12T10:30:24.119Z,61.90
2023-02-12T10:33:54.278Z,60.80
2023-02-12T10:37:33.621Z,56.10
2023-02-12T10:41:02.062Z,49.20
2023-02-12T10:44:29.857Z,51.50
2023-02-12T10:48:09.011Z,38.20
2023-02-12T10:51:54.962Z,47.40
2023-02-12T10:55:32.317Z,44.40
2023-02-12T10:59:01.577Z,39.20
2023-02-12T11:02:33.410Z,38.00
2023-02-12T11:06:17.146Z,40.30
2023-02-12T11:09:49.537Z,36.30
2023-02-12T11:13:26.627Z,34.80
2023-02-12T11:16:58.541Z,35.50
2023-02-12T11:20:30.195Z,39.40
2023-02-12T11:23:58.098Z,31.70
2023-02-12T11:27:28.752Z,25.90
2023-02-12T11:30:58.711Z,28.50
2023-02-12T11:34:26.692Z,25.90
2023-02-12T11:37:55.552Z,24.00
2023-02-12T11:41:37.333Z,20.70
2023-02-12T11:45:08.567Z,17.20
2023-02-12T11:48:41.631Z,19.80
2023-02-12T11:52:18.860Z,25.10
2023-02-12T11:55:57.507Z,20.90
2023-02-12T11:59:34.205Z,19.90
2023-02-12T12:06:42.633Z,20.70
2023-02-12T12:10:20.660Z,20.60
2023-02-12T12:13:52.326Z,21.10
2023-02-12T12:17:37.642Z,26.20
2023-02-12T12:21:12.930Z,22.90
2023-02-12T12:24:49.541Z,20.70
2023-02-12T12:28:31.802Z,22.80
2023-02-12T12:32:02.310Z,18.50
2023-02-12T12:35:41.794Z,23.30
2023-02-12T12:39:23.302Z,26.30
2023-02-12T12:43:15.297Z,30.80
2023-02-12T12:46:56.872Z,28.50
2023-02-12T12:50:44.380Z,34.60
2023-02-12T12:54:41.755Z,31.20
2023-02-12T12:58:20.746Z,25.60
2023-02-12T13:02:09.278Z,31.70
2023-02-12T13:06:17.587Z,37.80
2023-02-12T13:09:59.713Z,31.20
2023-02-12T13:13:34.470Z,24.70
2023-02-12T13:17:19.805Z,28.70
2023-02-12T13:20:53.754Z,30.60
2023-02-12T13:24:31.925Z,28.30
2023-02-12T13:28:01.142Z,33.20
2023-02-12T13:31:47.173Z,29.00
2023-02-12T13:35:21.024Z,35.20
2023-02-12T13:38:57.473Z,30.50
2023-02-12T13:42:38.491Z,33.00
2023-02-12T13:46:16.351Z,41.60
2023-02-12T13:50:01.343Z,40.90
2023-02-12T13:53:40.906Z,44.50
2023-02-12T13:57:14.926Z,33.50
2023-02-12T14:01:07.792Z,36.90
2023-02-12T14:04:38.061Z,39.70
2023-02-12T14:08:35.960Z,40.80
2023-02-12T14:12:16.534Z,38.60
2023-02-12T14:16:22.786Z,52.70
2023-02-12T14:20:08.875Z,45.30
2023-02-12T14:23:36.402Z,43.70
2023-02-12T14:27:04.224Z,43.50
2023-02-12T14:30:39.191Z,33.00
2023-02-12T14:34:50.467Z,38.40
2023-02-12T14:39:02.929Z,29.80
2023-02-12T14:42:58.033Z,50.10
2023-02-12T14:46:48.971Z,30.30
2023-02-12T14:50:24.160Z,29.70
2023-02-12T14:53:55.667Z,23.60
2023-02-12T14:57:28.804Z,22.20
2023-02-12T15:01:02.407Z,14.10
2023-02-12T15:04:34.942Z,18.40
2023-02-12T15:08:08.241Z,19.80
2023-02-12T15:11:48.215Z,23.50
2023-02-12T15:15:27.045Z,17.90
2023-02-12T15:19:01.009Z,19.10
2023-02-12T15:22:32.136Z,18.60
2023-02-12T15:26:00.371Z,20.30
2023-02-12T15:29:33.036Z,19.60
2023-02-12T15:33:04.502Z,18.80
2023-02-12T15:36:38.108Z,22.30
2023-02-12T15:40:08.797Z,20.50
2023-02-12T15:43:43.383Z,25.00
2023-02-12T15:47:17.188Z,25.60
2023-02-12T15:50:58.274Z,28.50
2023-02-12T15:54:26.312Z,30.50
2023-02-12T15:57:55.053Z,35.90
2023-02-12T16:01:28.023Z,35.30
2023-02-12T16:05:18.366Z,40.90
2023-02-12T16:08:47.966Z,28.10
2023-02-12T16:12:19.211Z,27.10
2023-02-12T16:15:46.822Z,27.90
2023-02-12T16:19:22.781Z,22.80
2023-02-12T16:22:53.548Z,21.30
2023-02-12T16:26:30.517Z,26.70
2023-02-12T16:30:00.539Z,22.40
2023-02-12T16:33:45.515Z,23.80
2023-02-12T16:41:28.032Z,34.00
2023-02-12T16:44:59.075Z,35.60
2023-02-12T16:48:43.854Z,26.10
2023-02-12T16:52:35.046Z,33.10
2023-02-12T16:56:03.897Z,34.40
2023-02-12T16:59:31.507Z,34.90
2023-02-12T17:02:59.470Z,31.80
2023-02-12T17:06:29.161Z,35.00
2023-02-12T17:09:59.071Z,37.00
2023-02-12T17:13:26.254Z,34.90
2023-02-12T17:16:53.542Z,29.00
2023-02-12T17:20:24.254Z,38.80
2023-02-12T17:23:53.900Z,41.20
2023-02-12T17:27:32.324Z,33.30
2023-02-12T17:31:02.680Z,41.00
2023-02-12T17:34:34.126Z,38.60
2023-02-12T17:38:17.344Z,45.60
2023-02-12T17:41:45.316Z,38.40
2023-02-12T17:45:14.975Z,39.60
2023-02-12T17:48:45.064Z,51.00
2023-02-12T17:52:15.282Z,38.20
2023-02-12T17:55:52.549Z,41.80
2023-02-12T17:59:20.360Z,43.50
2023-02-12T18:02:50.895Z,37.90
2023-02-12T18:06:24.520Z,40.40
2023-02-12T18:09:51.751Z,46.70
2023-02-12T18:13:22.084Z,32.80
2023-02-12T18:16:52.249Z,43.80
2023-02-12T18:20:29.629Z,44.80
2023-02-12T18:23:59.814Z,43.40
2023-02-12T18:27:27.160Z,35.30
2023-02-12T18:31:05.930Z,35.80
2023-02-12T18:34:33.343Z,33.20
2023-02-12T18:38:00.983Z,42.60
2023-02-12T18:41:30.307Z,32.10
2023-02-12T18:44:57.833Z,46.90
2023-02-12T18:48:27.253Z,40.20
2023-02-12T18:51:54.726Z,36.50
2023-02-12T18:55:21.883Z,38.10
2023-02-12T18:58:49.196Z,45.90
2023-02-12T19:02:16.923Z,42.00
2023-02-12T19:05:44.432Z,43.10
2023-02-12T19:09:13.472Z,51.90
2023-02-12T19:12:40.678Z,43.60
2023-02-12T19:16:13.738Z,36.40
2023-02-12T19:19:41.019Z,35.80
2023-02-12T19:23:08.252Z,44.40
2023-02-12T19:26:46.496Z,37.80
2023-02-12T19:30:14.997Z,42.50
2023-02-12T19:33:42.249Z,46.90
2023-02-12T19:37:11.688Z,35.90
2023-02-12T19:44:18.857Z,46.80
2023-02-12T19:47:46.372Z,38.70
2023-02-12T19:51:18.351Z,47.60
2023-02-12T19:54:48.385Z,42.90
2023-02-12T19:58:15.713Z,51.30
2023-02-12T20:01:46.283Z,50.20
2023-02-12T20:05:13.689Z,48.60
2023-02-12T20:08:41.947Z,56.20
2023-02-12T20:12:09.795Z,51.90
2023-02-12T20:15:38.008Z,50.90
2023-02-12T20:19:07.920Z,50.70
2023-02-12T20:22:36.917Z,53.20
2023-02-12T20:26:09.883Z,49.80
2023-02-12T20:33:02.737Z,45.40
2023-02-12T20:36:34.030Z,49.30
2023-02-12T20:40:01.279Z,56.60
2023-02-12T20:43:28.652Z,47.60
2023-02-12T20:46:57.361Z,56.80
2023-02-12T20:50:34.004Z,49.50
2023-02-12T20:54:03.486Z,44.90
2023-02-12T20:57:34.887Z,50.20
2023-02-12T21:01:08.202Z,50.00
2023-02-12T21:04:35.818Z,53.70
2023-02-12T21:08:03.161Z,48.30
2023-02-12T21:11:30.990Z,50.00
2023-02-12T21:14:58.299Z,53.50
2023-02-12T21:18:27.096Z,47.10
2023-02-12T21:21:54.564Z,54.40
2023-02-12T21:25:21.975Z,57.10
2023-02-12T21:28:49.539Z,50.10
2023-02-12T21:32:16.856Z,45.90
2023-02-12T21:35:44.428Z,51.20
2023-02-12T21:39:14.791Z,49.60
2023-02-12T21:42:41.970Z,44.00
2023-02-12T21:46:15.429Z,48.80
2023-02-12T21:49:43.256Z,50.30
2023-02-12T21:53:10.594Z,54.40
2023-02-12T21:56:42.506Z,49.10
2023-02-12T22:00:12.379Z,52.40
2023-02-12T22:03:44.081Z,54.20
2023-02-12T22:07:11.474Z,54.40
2023-02-12T22:10:38.863Z,45.50
2023-02-12T22:14:07.388Z,48.20
2023-02-12T22:17:35.781Z,53.40
2023-02-12T22:21:05.960Z,44.80
2023-02-12T22:24:37.353Z,47.50
2023-02-12T22:28:24.942Z,37.70
2023-02-12T22:31:52.349Z,46.00
2023-02-12T22:35:20.256Z,44.30
2023-02-12T22:38:47.660Z,40.00
2023-02-12T22:42:17.540Z,36.80
2023-02-12T22:49:13.606Z,34.90
2023-02-12T22:52:43.746Z,35.00
2023-02-12T22:56:11.889Z,30.80
2023-02-12T22:59:39.346Z,39.60
2023-02-12T23:03:07.157Z,36.60
2023-02-12T23:06:44.012Z,34.80
2023-02-12T23:10:12.777Z,29.90
2023-02-12T23:13:42.947Z,31.70
2023-02-12T23:17:10.360Z,30.70
2023-02-12T23:20:37.643Z,26.20
2023-02-12T23:24:04.993Z,31.00
2023-02-12T23:27:32.339Z,34.50
2023-02-12T23:31:00.504Z,28.30
2023-02-12T23:34:28.173Z,32.40
2023-02-12T23:37:55.805Z,33.20
2023-02-12T23:41:23.055Z,30.10
2023-02-12T23:44:50.394Z,31.20
2023-02-12T23:48:17.726Z,30.40
2023-02-12T23:51:46.378Z,29.70
2023-02-12T23:55:25.373Z,33.30
2023-02-12T23:59:12.875Z,32.00
